Time;durP1;ratioP1;P1;durP2;ratioP2;P2;SDS_P1;SDS_P2;PMS_P1;PMS_P2;Temp;Humidity;BMP_temperature;BMP_pressure;BME280_temperature;BME280_humidity;BME280_pressure;Samples;Min_cycle;Max_cycle;Signal;HPM_P1;HPM_P2
2022/09/28 00:00:40;;;;;;;9.90;9.30;;;9.30;99.90;;;;;;4941595;29;20265;-74
2022/09/28 00:03:08;;;;;;;11.07;10.40;;;9.30;99.90;;;;;;4942003;29;20199;-74
2022/09/28 00:05:35;;;;;;;11.50;10.80;;;9.30;99.90;;;;;;4941263;29;20269;-75
2022/09/28 00:08:02;;;;;;;11.27;10.53;;;9.30;99.90;;;;;;4938783;29;20210;-75
2022/09/28 00:10:28;;;;;;;11.20;10.60;;;9.40;99.90;;;;;;4932374;29;20231;-74
2022/09/28 00:12:55;;;;;;;10.37;9.80;;;9.40;99.90;;;;;;4941703;29;20238;-75
2022/09/28 00:15:24;;;;;;;10.90;10.30;;;9.40;99.90;;;;;;4941450;29;20215;-74
2022/09/28 00:17:51;;;;;;;10.10;9.40;;;9.50;99.90;;;;;;4942423;29;20278;-75
2022/09/28 00:20:18;;;;;;;10.10;9.40;;;9.50;99.90;;;;;;4942283;29;20619;-74
2022/09/28 00:22:45;;;;;;;10.30;9.70;;;9.50;99.90;;;;;;4942681;29;20223;-75
2022/09/28 00:25:12;;;;;;;8.90;8.40;;;9.50;99.90;;;;;;4939519;29;20203;-74
2022/09/28 00:27:39;;;;;;;8.87;8.37;;;9.50;99.90;;;;;;4939860;29;20215;-75
2022/09/28 00:30:07;;;;;;;9.00;8.50;;;9.60;99.90;;;;;;4940825;29;20199;-75
2022/09/28 00:32:35;;;;;;;9.90;9.20;;;9.60;99.90;;;;;;4941153;29;20231;-75
2022/09/28 00:35:02;;;;;;;10.03;9.33;;;9.60;99.90;;;;;;4942323;29;20258;-74
2022/09/28 00:37:29;;;;;;;8.97;8.40;;;9.70;99.90;;;;;;4943236;29;20208;-74
2022/09/28 00:39:56;;;;;;;8.90;8.40;;;9.70;99.90;;;;;;4938906;29;20235;-74
2022/09/28 00:42:26;;;;;;;11.23;10.50;;;9.70;99.90;;;;;;4941191;29;20238;-74
2022/09/28 00:44:53;;;;;;;10.97;10.33;;;9.70;99.90;;;;;;4940612;29;20203;-74
2022/09/28 00:47:39;;;;;;;10.33;9.63;;;9.70;99.90;;;;;;4941456;29;20195;-75
2022/09/28 00:50:12;;;;;;;9.23;8.67;;;9.80;99.90;;;;;;4941445;29;20246;-74
2022/09/28 00:52:46;;;;;;;9.47;8.80;;;9.80;99.90;;;;;;4937184;29;20735;-74
2022/09/28 00:55:16;;;;;;;9.00;8.43;;;9.80;99.90;;;;;;4941109;29;20207;-76
2022/09/28 00:57:47;;;;;;;9.07;8.47;;;9.80;99.90;;;;;;4940614;29;20215;-76
2022/09/28 01:00:14;;;;;;;8.73;8.13;;;9.80;99.90;;;;;;4938665;29;20211;-76
2022/09/28 01:02:44;;;;;;;8.37;7.93;;;9.80;99.90;;;;;;4939320;29;20239;-77
2022/09/28 01:05:12;;;;;;;8.10;7.60;;;9.80;99.90;;;;;;4934158;29;20207;-76
2022/09/28 01:07:40;;;;;;;8.37;7.77;;;9.80;99.90;;;;;;4933941;29;20199;-76
2022/09/28 01:10:08;;;;;;;8.33;7.77;;;9.80;99.90;;;;;;4941637;29;20210;-76
2022/09/28 01:12:35;;;;;;;7.73;6.93;;;9.80;99.90;;;;;;4937343;29;20264;-76
2022/09/28 01:15:03;;;;;;;7.50;7.00;;;9.90;99.90;;;;;;4941842;29;20642;-76
2022/09/28 01:17:38;;;;;;;7.20;6.60;;;9.80;99.90;;;;;;4933941;29;20221;-76
2022/09/28 01:20:27;;;;;;;6.80;6.37;;;9.90;99.90;;;;;;4933853;29;20255;-76
2022/09/28 01:23:37;;;;;;;7.30;6.80;;;9.90;99.90;;;;;;4933504;29;20215;-76
2022/09/28 01:26:42;;;;;;;7.50;6.90;;;9.90;99.90;;;;;;4940239;29;20286;-76
2022/09/28 01:29:17;;;;;;;6.30;5.80;;;9.90;99.90;;;;;;4898110;29;20255;-76
2022/09/28 01:31:48;;;;;;;7.53;7.03;;;9.90;99.90;;;;;;4956344;23;20738;-78
2022/09/28 01:34:21;;;;;;;7.30;6.80;;;9.90;99.90;;;;;;4960255;28;20217;-79
2022/09/28 01:36:53;;;;;;;6.27;5.87;;;9.90;99.90;;;;;;4950957;28;20636;-79
2022/09/28 01:39:26;;;;;;;6.20;5.70;;;9.90;99.90;;;;;;4954433;28;20198;-78
2022/09/28 01:41:57;;;;;;;6.33;5.67;;;9.90;99.90;;;;;;4937322;28;20722;-79
2022/09/28 01:44:29;;;;;;;5.90;5.60;;;10.00;99.90;;;;;;4929210;29;20202;-79
2022/09/28 01:47:03;;;;;;;6.10;5.63;;;9.90;99.90;;;;;;4947561;29;20203;-79
2022/09/28 01:49:33;;;;;;;6.30;5.90;;;10.00;99.90;;;;;;4933435;29;20258;-78
2022/09/28 01:52:04;;;;;;;6.30;5.70;;;9.90;99.90;;;;;;4933406;29;20301;-79
2022/09/28 01:54:36;;;;;;;6.00;5.60;;;9.90;99.90;;;;;;4918922;29;20576;-79
2022/09/28 01:57:10;;;;;;;6.30;5.80;;;10.00;99.90;;;;;;4933193;29;20213;-79
2022/09/28 01:59:41;;;;;;;6.20;5.70;;;10.00;99.90;;;;;;4931882;29;20631;-78
2022/09/28 02:02:13;;;;;;;6.40;5.80;;;10.00;99.90;;;;;;4928997;29;20297;-79
2022/09/28 02:04:44;;;;;;;6.63;6.00;;;10.00;99.90;;;;;;4931647;29;20211;-79
2022/09/28 02:07:15;;;;;;;6.03;5.63;;;10.10;99.90;;;;;;4933441;29;20225;-79
2022/09/28 02:09:46;;;;;;;6.30;5.70;;;10.00;99.90;;;;;;4930720;29;20206;-79
2022/09/28 02:12:20;;;;;;;6.27;5.67;;;10.10;99.90;;;;;;4929327;29;20215;-79
2022/09/28 02:14:52;;;;;;;6.30;5.80;;;10.00;99.90;;;;;;4929005;28;20281;-78
2022/09/28 02:17:20;;;;;;;6.93;5.70;;;10.00;99.90;;;;;;4935830;29;20195;-79
2022/09/28 02:19:47;;;;;;;5.00;2.90;;;10.10;99.90;;;;;;4932437;29;20571;-79
2022/09/28 02:22:24;;;;;;;4.80;2.77;;;10.10;99.90;;;;;;4932496;29;20689;-78
2022/09/28 02:24:56;;;;;;;5.40;2.80;;;10.10;99.90;;;;;;4942233;29;20278;-79
2022/09/28 02:27:34;;;;;;;4.07;2.67;;;10.10;99.90;;;;;;4937375;29;20223;-79
2022/09/28 02:30:01;;;;;;;3.10;2.90;;;10.10;99.90;;;;;;4937301;29;20216;-79
2022/09/28 02:32:33;;;;;;;3.80;3.50;;;10.10;99.90;;;;;;4925238;29;20238;-79
2022/09/28 02:35:01;;;;;;;4.97;3.10;;;10.10;99.90;;;;;;4936241;29;20203;-79
2022/09/28 02:37:27;;;;;;;4.37;3.10;;;10.10;99.90;;;;;;4925192;29;20660;-79
2022/09/28 02:39:54;;;;;;;2.80;2.60;;;10.10;99.90;;;;;;4932206;29;20218;-79
2022/09/28 02:42:27;;;;;;;6.10;3.40;;;10.10;99.90;;;;;;4932253;29;20227;-80
2022/09/28 02:45:08;;;;;;;4.47;3.20;;;10.10;99.90;;;;;;4932826;29;20707;-80
2022/09/28 02:47:51;;;;;;;2.90;2.70;;;10.10;99.90;;;;;;4921797;29;20218;-79
2022/09/28 02:50:25;;;;;;;4.40;2.90;;;10.20;99.90;;;;;;4929441;29;20262;-80
2022/09/28 02:53:21;;;;;;;3.10;2.80;;;10.20;99.90;;;;;;4933232;29;20223;-80
2022/09/28 02:56:00;;;;;;;4.80;3.07;;;10.10;99.90;;;;;;4925442;29;20226;-81
2022/09/28 02:58:39;;;;;;;2.73;2.53;;;10.20;99.90;;;;;;4920979;29;20580;-81
2022/09/28 03:01:19;;;;;;;3.43;2.70;;;10.20;99.90;;;;;;4923458;29;20207;-82
2022/09/28 03:03:50;;;;;;;2.73;2.53;;;10.20;99.90;;;;;;4924008;29;20241;-81
2022/09/28 03:06:25;;;;;;;3.30;3.00;;;10.20;99.90;;;;;;4934637;29;20205;-81
2022/09/28 03:08:57;;;;;;;2.83;2.67;;;10.20;99.90;;;;;;4922873;29;20231;-81
2022/09/28 03:11:30;;;;;;;5.07;2.70;;;10.20;99.90;;;;;;4922148;29;20231;-82
2022/09/28 03:13:58;;;;;;;3.17;2.80;;;10.30;99.90;;;;;;4933612;29;20307;-82
2022/09/28 03:16:35;;;;;;;7.90;7.30;;;10.20;99.90;;;;;;4917503;29;20199;-83
2022/09/28 03:19:02;;;;;;;6.40;6.00;;;10.20;99.90;;;;;;4927821;29;20207;-81
2022/09/28 03:21:30;;;;;;;5.80;5.50;;;10.20;99.90;;;;;;4935039;29;20323;-81
2022/09/28 03:23:57;;;;;;;6.33;5.83;;;10.20;99.90;;;;;;4934092;29;20234;-81
2022/09/28 03:26:24;;;;;;;6.30;5.90;;;10.30;99.90;;;;;;4931190;28;20202;-80
2022/09/28 03:28:51;;;;;;;5.97;5.60;;;10.20;99.90;;;;;;4941353;29;20205;-81
2022/09/28 03:31:23;;;;;;;6.23;5.70;;;10.20;99.90;;;;;;4937821;29;20205;-81
2022/09/28 03:33:52;;;;;;;5.90;5.30;;;10.20;99.90;;;;;;4938744;29;20234;-83
2022/09/28 03:36:19;;;;;;;6.03;5.53;;;10.30;99.90;;;;;;4940968;29;20202;-81
2022/09/28 03:38:46;;;;;;;5.60;5.20;;;10.20;99.90;;;;;;4936707;29;20199;-81
2022/09/28 03:41:13;;;;;;;5.20;4.90;;;10.30;99.90;;;;;;4941076;29;20234;-81
2022/09/28 03:43:42;;;;;;;5.70;5.10;;;10.20;99.90;;;;;;4937055;29;20223;-81
2022/09/28 03:46:10;;;;;;;9.80;9.10;;;10.20;99.90;;;;;;4932895;29;20693;-81
2022/09/28 03:48:42;;;;;;;7.97;7.40;;;10.20;99.90;;;;;;4935155;29;20207;-81
2022/09/28 03:51:13;;;;;;;7.50;7.00;;;10.20;99.90;;;;;;4940944;29;20592;-79
2022/09/28 03:53:40;;;;;;;8.10;7.60;;;10.20;99.90;;;;;;4934992;29;20290;-80
2022/09/28 03:56:11;;;;;;;8.07;7.50;;;10.20;99.90;;;;;;4940338;29;20197;-80
2022/09/28 03:58:39;;;;;;;8.03;7.47;;;10.20;99.90;;;;;;4936891;29;20574;-80
2022/09/28 04:01:08;;;;;;;7.23;6.83;;;10.20;99.90;;;;;;4939047;29;20213;-80
2022/09/28 04:03:35;;;;;;;8.53;7.50;;;10.10;99.90;;;;;;4932376;29;20690;-80
2022/09/28 04:06:02;;;;;;;7.97;7.43;;;10.10;99.90;;;;;;4936118;29;20226;-81
2022/09/28 04:08:31;;;;;;;8.00;7.40;;;10.20;99.90;;;;;;4932360;29;20565;-80
2022/09/28 04:10:59;;;;;;;7.40;7.00;;;10.10;99.90;;;;;;4948689;29;20225;-81
2022/09/28 04:13:26;;;;;;;11.83;8.00;;;10.10;99.90;;;;;;4931334;29;20229;-81
2022/09/28 04:15:54;;;;;;;9.13;8.30;;;10.10;99.90;;;;;;4932441;29;20209;-81
2022/09/28 04:18:21;;;;;;;10.97;10.27;;;10.10;99.90;;;;;;4935932;29;20230;-81
2022/09/28 04:21:19;;;;;;;12.73;11.73;;;10.10;99.90;;;;;;4868543;29;20218;-81
2022/09/28 04:23:52;;;;;;;11.80;11.00;;;10.10;99.90;;;;;;4932028;29;20232;-81
2022/09/28 04:26:23;;;;;;;12.53;11.83;;;10.10;99.90;;;;;;4935383;29;20304;-80
2022/09/28 04:31:41;;;;;;;11.43;10.73;;;10.10;99.90;;;;;;4927279;29;20238;-81
2022/09/28 04:34:08;;;;;;;12.53;11.73;;;10.00;99.90;;;;;;4935217;29;20206;-81
2022/09/28 04:36:35;;;;;;;13.23;12.40;;;10.00;99.90;;;;;;4931936;29;20574;-81
2022/09/28 04:39:04;;;;;;;12.77;11.97;;;10.00;99.90;;;;;;4930032;28;20565;-80
2022/09/28 04:41:32;;;;;;;13.10;12.30;;;10.00;99.90;;;;;;4930032;29;20219;-81
2022/09/28 04:43:59;;;;;;;13.13;12.30;;;10.00;99.90;;;;;;4930426;29;20223;-81
2022/09/28 04:46:26;;;;;;;13.53;12.73;;;10.10;99.90;;;;;;4934577;29;20207;-81
2022/09/28 04:49:12;;;;;;;13.60;12.80;;;10.10;99.90;;;;;;4943270;29;20591;-81
2022/09/28 04:51:49;;;;;;;12.90;12.10;;;10.00;99.90;;;;;;4948899;29;20257;-81
2022/09/28 04:54:18;;;;;;;13.40;12.47;;;10.00;99.90;;;;;;4934240;29;20207;-81
2022/09/28 04:56:45;;;;;;;14.10;13.20;;;10.10;99.90;;;;;;4932416;29;20293;-81
2022/09/28 04:59:12;;;;;;;13.83;12.93;;;10.00;99.90;;;;;;4929512;29;20195;-81
2022/09/28 05:01:41;;;;;;;13.20;12.50;;;10.00;99.90;;;;;;4929282;28;20222;-80
2022/09/28 05:04:13;;;;;;;11.47;10.87;;;10.00;99.90;;;;;;4946038;29;20219;-81
2022/09/28 05:07:03;;;;;;;6.20;5.80;;;10.00;99.90;;;;;;4933912;29;20209;-80
2022/09/28 05:09:32;;;;;;;6.93;6.33;;;10.00;99.90;;;;;;4929023;29;20198;-79
2022/09/28 05:11:58;;;;;;;6.13;5.80;;;10.00;99.90;;;;;;4929191;29;20223;-81
2022/09/28 05:14:25;;;;;;;6.20;5.80;;;10.00;99.90;;;;;;4936104;29;20315;-81
2022/09/28 05:16:52;;;;;;;6.07;5.57;;;10.00;99.90;;;;;;4932094;29;20202;-81
2022/09/28 05:19:22;;;;;;;11.20;10.60;;;10.00;99.90;;;;;;4946483;28;20221;-80
2022/09/28 05:21:51;;;;;;;11.40;10.80;;;10.00;99.90;;;;;;4933267;29;20225;-81
2022/09/28 05:24:17;;;;;;;11.67;10.97;;;9.90;99.90;;;;;;4928664;29;20738;-79
2022/09/28 05:26:51;;;;;;;12.80;12.00;;;10.00;99.90;;;;;;4930308;29;20648;-80
2022/09/28 05:29:19;;;;;;;13.00;12.10;;;10.00;99.90;;;;;;4931123;29;20202;-81
2022/09/28 05:31:46;;;;;;;13.60;12.87;;;10.10;99.90;;;;;;4948552;29;20239;-81
2022/09/28 05:34:19;;;;;;;14.00;13.20;;;10.00;99.90;;;;;;4933922;29;20195;-83
2022/09/28 05:36:46;;;;;;;13.97;13.17;;;10.10;99.90;;;;;;4931181;29;20199;-83
2022/09/28 05:39:13;;;;;;;13.60;12.80;;;10.10;99.90;;;;;;4933667;29;20211;-80
2022/09/28 05:41:39;;;;;;;14.30;13.40;;;10.10;99.90;;;;;;4930647;29;20231;-81
2022/09/28 05:44:07;;;;;;;13.97;13.17;;;10.10;99.90;;;;;;4930440;29;20222;-81
2022/09/28 05:46:35;;;;;;;14.03;13.23;;;10.20;99.90;;;;;;4928584;29;20298;-80
2022/09/28 05:49:02;;;;;;;14.50;13.60;;;10.20;99.90;;;;;;4945920;29;20203;-81
2022/09/28 05:51:29;;;;;;;13.43;12.73;;;10.20;99.90;;;;;;4920638;29;20602;-81
2022/09/28 05:53:56;;;;;;;14.13;13.33;;;10.20;99.90;;;;;;4928661;29;20205;-80
2022/09/28 05:56:25;;;;;;;13.97;13.17;;;10.10;99.90;;;;;;4929796;29;20195;-81
2022/09/28 05:58:53;;;;;;;14.27;13.37;;;10.20;99.90;;;;;;4937235;29;20206;-81
2022/09/28 06:01:23;;;;;;;13.57;12.57;;;10.20;99.90;;;;;;4931780;29;20230;-79
2022/09/28 06:03:50;;;;;;;13.30;12.50;;;10.20;99.90;;;;;;4932701;29;20261;-81
2022/09/28 06:06:18;;;;;;;11.93;11.20;;;10.20;99.90;;;;;;4931925;28;20623;-81
2022/09/28 06:08:47;;;;;;;11.27;10.47;;;10.10;99.90;;;;;;4935860;29;20199;-80
2022/09/28 06:11:32;;;;;;;11.40;10.80;;;10.20;99.90;;;;;;4926320;29;20730;-80
2022/09/28 06:14:03;;;;;;;11.57;10.87;;;10.10;99.90;;;;;;4937454;29;20871;-81
2022/09/28 06:16:33;;;;;;;12.80;12.00;;;10.00;99.90;;;;;;4932538;29;20222;-80
2022/09/28 06:19:00;;;;;;;12.30;11.60;;;9.90;99.90;;;;;;4932052;28;20285;-80
2022/09/28 06:21:48;;;;;;;13.23;12.53;;;9.90;99.90;;;;;;4949845;28;20593;-81
2022/09/28 06:24:15;;;;;;;8.20;7.80;;;9.90;99.90;;;;;;4933680;29;20241;-80
2022/09/28 06:26:42;;;;;;;8.10;7.70;;;9.90;99.90;;;;;;4932892;29;20195;-80
2022/09/28 06:29:09;;;;;;;7.23;6.83;;;9.90;99.90;;;;;;4932683;29;20668;-81
2022/09/28 06:31:37;;;;;;;6.03;5.73;;;9.80;99.90;;;;;;4935190;29;20270;-81
2022/09/28 06:34:04;;;;;;;6.47;6.13;;;9.80;99.90;;;;;;4936843;29;20205;-81
2022/09/28 06:36:30;;;;;;;6.50;6.00;;;9.80;99.90;;;;;;4938895;29;20342;-81
2022/09/28 06:38:57;;;;;;;5.90;5.60;;;9.80;99.90;;;;;;4949158;29;20194;-81
2022/09/28 06:41:25;;;;;;;6.10;5.70;;;9.80;99.90;;;;;;4935500;29;20210;-81
2022/09/28 06:43:52;;;;;;;7.13;6.63;;;9.80;99.90;;;;;;4932117;29;20210;-81
2022/09/28 06:46:39;;;;;;;6.30;5.90;;;9.90;99.90;;;;;;4941633;29;20213;-81
2022/09/28 06:49:34;;;;;;;6.10;5.70;;;9.90;99.90;;;;;;4931095;29;20663;-80
2022/09/28 06:52:24;;;;;;;5.80;5.50;;;9.90;99.90;;;;;;4946170;29;20233;-81
2022/09/28 06:55:06;;;;;;;6.40;6.10;;;10.00;99.90;;;;;;4935208;29;20226;-80
2022/09/28 06:57:44;;;;;;;6.93;6.53;;;10.00;99.90;;;;;;4948847;29;20603;-80
2022/09/28 07:00:12;;;;;;;6.00;5.60;;;10.00;99.90;;;;;;4932581;29;20258;-80
2022/09/28 07:02:40;;;;;;;6.80;6.30;;;10.00;99.90;;;;;;4933944;29;20230;-80
2022/09/28 07:05:27;;;;;;;6.30;5.90;;;10.00;99.90;;;;;;4953036;29;20719;-81
2022/09/28 07:08:18;;;;;;;6.00;5.70;;;10.00;99.90;;;;;;4952819;28;20581;-80
2022/09/28 07:11:05;;;;;;;5.80;5.50;;;10.00;99.90;;;;;;4935718;29;20241;-81
2022/09/28 07:13:45;;;;;;;5.20;4.90;;;10.10;99.90;;;;;;4933726;29;20293;-81
2022/09/28 07:16:12;;;;;;;5.80;5.50;;;10.00;99.90;;;;;;4934565;29;20202;-81
2022/09/28 07:18:41;;;;;;;6.70;6.20;;;10.10;99.90;;;;;;4932652;29;20199;-81
2022/09/28 07:21:07;;;;;;;6.67;6.27;;;10.20;99.90;;;;;;4919427;29;20196;-81
2022/09/28 07:23:34;;;;;;;11.60;10.90;;;10.20;99.90;;;;;;4930824;29;20218;-81
2022/09/28 07:26:21;;;;;;;6.17;5.77;;;10.20;99.90;;;;;;4947808;29;20258;-80
2022/09/28 07:29:18;;;;;;;8.77;8.27;;;10.30;99.90;;;;;;4879144;29;20772;-81
2022/09/28 07:31:58;;;;;;;10.60;10.00;;;10.40;99.90;;;;;;4935330;28;20257;-80
2022/09/28 07:34:43;;;;;;;10.33;9.73;;;10.50;99.90;;;;;;4923733;29;20697;-81
2022/09/28 07:37:18;;;;;;;5.20;4.90;;;10.50;99.90;;;;;;4930874;29;20206;-81
2022/09/28 07:42:33;;;;;;;6.13;5.73;;;10.70;99.90;;;;;;4932599;29;20228;-81
2022/09/28 07:45:00;;;;;;;10.83;10.23;;;10.70;99.90;;;;;;4934888;29;20229;-81
2022/09/28 07:47:27;;;;;;;4.87;4.47;;;10.70;99.90;;;;;;4931017;29;20229;-81
2022/09/28 07:50:14;;;;;;;5.50;5.10;;;10.80;99.90;;;;;;4925752;29;20688;-80
2022/09/28 07:53:00;;;;;;;5.87;5.47;;;10.70;99.90;;;;;;4931065;29;20220;-81
2022/09/28 07:55:51;;;;;;;5.83;5.47;;;10.70;99.90;;;;;;4937341;29;20695;-81
2022/09/28 07:58:35;;;;;;;6.33;5.93;;;10.70;99.90;;;;;;4922457;29;20685;-81
2022/09/28 08:01:21;;;;;;;3.53;3.23;;;10.70;99.90;;;;;;4947197;29;20736;-81
2022/09/28 08:03:48;;;;;;;3.83;3.63;;;10.70;99.90;;;;;;4924266;29;20275;-81
2022/09/28 08:06:17;;;;;;;4.23;3.93;;;10.70;99.90;;;;;;4928925;29;20199;-80
2022/09/28 08:08:44;;;;;;;10.00;9.40;;;10.70;99.90;;;;;;4938088;29;20202;-81
2022/09/28 08:11:15;;;;;;;3.63;3.40;;;10.70;99.90;;;;;;4937720;29;20203;-81
2022/09/28 08:14:03;;;;;;;4.03;3.73;;;10.70;99.90;;;;;;4929179;29;20207;-80
2022/09/28 08:17:07;;;;;;;3.50;3.30;;;10.80;99.90;;;;;;4887764;29;20204;-80
2022/09/28 08:22:31;;;;;;;6.90;6.50;;;10.80;99.90;;;;;;4922410;29;20256;-81
2022/09/28 08:24:59;;;;;;;4.70;4.40;;;10.90;99.90;;;;;;4929716;29;20215;-81
2022/09/28 08:27:26;;;;;;;3.10;2.90;;;10.90;99.90;;;;;;4930151;29;20682;-81
2022/09/28 08:29:54;;;;;;;3.93;3.73;;;10.90;99.90;;;;;;4930452;29;20210;-80
2022/09/28 08:32:48;;;;;;;7.33;6.80;;;11.00;99.90;;;;;;4926318;29;20221;-81
2022/09/28 08:35:33;;;;;;;5.47;5.17;;;11.00;99.90;;;;;;4936885;29;20203;-81
2022/09/28 08:38:20;;;;;;;3.77;3.57;;;10.90;99.90;;;;;;4933950;29;20672;-81
2022/09/28 08:41:16;;;;;;;6.47;6.07;;;10.70;99.90;;;;;;4941192;29;20210;-81
2022/09/28 08:44:22;;;;;;;4.47;2.97;;;10.50;99.90;;;;;;4934515;29;20847;-81
2022/09/28 08:48:42;;;;;;;3.23;3.03;;;10.50;99.90;;;;;;4941750;29;20696;-81
2022/09/28 08:50:20;;;;;;;3.10;2.90;;;10.50;99.90;;;;;;4926004;29;20199;-81
2022/09/28 08:53:35;;;;;;;2.90;2.70;;;10.70;99.90;;;;;;4920087;29;20227;-81
2022/09/28 08:56:15;;;;;;;3.10;2.90;;;10.80;99.90;;;;;;4929813;29;20214;-80
2022/09/28 08:58:47;;;;;;;3.00;2.70;;;10.90;99.90;;;;;;4933009;29;20609;-81
2022/09/28 09:01:17;;;;;;;2.77;2.67;;;11.10;99.90;;;;;;4928785;29;20208;-80
2022/09/28 09:03:46;;;;;;;3.40;3.10;;;11.20;99.90;;;;;;4928991;28;20208;-81
2022/09/28 09:06:50;;;;;;;6.00;5.70;;;11.40;99.90;;;;;;4885276;29;20261;-81
2022/09/28 09:09:37;;;;;;;7.57;7.17;;;11.40;99.90;;;;;;4928736;29;20255;-81
2022/09/28 09:12:12;;;;;;;6.80;6.40;;;11.60;99.90;;;;;;4928971;29;20230;-81
2022/09/28 09:15:06;;;;;;;8.53;8.03;;;11.70;99.90;;;;;;4920401;29;20201;-80
2022/09/28 09:17:41;;;;;;;9.10;8.40;;;11.90;99.90;;;;;;4950765;28;20205;-81
2022/09/28 09:20:37;;;;;;;10.83;10.13;;;12.00;99.90;;;;;;4937570;29;20390;-78
2022/09/28 09:23:19;;;;;;;10.53;9.93;;;12.20;99.90;;;;;;4948437;29;20245;-79
2022/09/28 09:25:53;;;;;;;10.13;9.50;;;12.30;99.90;;;;;;4922366;29;20199;-79
2022/09/28 09:28:43;;;;;;;11.37;10.67;;;12.30;99.90;;;;;;4926120;29;20206;-79
2022/09/28 09:31:26;;;;;;;10.50;9.80;;;12.40;99.90;;;;;;4930952;29;20209;-78
2022/09/28 09:34:10;;;;;;;11.77;11.07;;;12.50;99.90;;;;;;4927535;29;20225;-79
2022/09/28 09:36:58;;;;;;;3.20;2.87;;;12.60;99.90;;;;;;4939291;29;20572;-79
2022/09/28 09:39:59;;;;;;;9.43;8.87;;;12.60;99.90;;;;;;4941529;29;20956;-78
2022/09/28 09:43:16;;;;;;;11.03;10.43;;;12.70;99.90;;;;;;4944913;29;20225;-79
2022/09/28 09:46:10;;;;;;;3.40;3.10;;;12.80;99.90;;;;;;4950393;28;20252;-79
2022/09/28 09:49:01;;;;;;;12.20;11.50;;;12.80;99.90;;;;;;4945458;29;20626;-78
2022/09/28 09:51:37;;;;;;;11.37;10.67;;;12.90;99.90;;;;;;4922583;28;20245;-79
2022/09/28 09:54:11;;;;;;;10.97;10.27;;;12.90;99.90;;;;;;4935560;29;20202;-79
2022/09/28 09:56:43;;;;;;;11.43;10.73;;;12.80;99.90;;;;;;4931267;29;20198;-79
2022/09/28 09:59:23;;;;;;;11.20;10.50;;;12.90;99.90;;;;;;4930392;29;20270;-80
2022/09/28 10:02:23;;;;;;;4.43;4.13;;;12.90;99.90;;;;;;4937673;29;20741;-78
2022/09/28 10:05:01;;;;;;;3.20;2.90;;;13.00;99.90;;;;;;4931290;29;20273;-79
2022/09/28 10:07:41;;;;;;;11.80;10.73;;;13.10;99.90;;;;;;4920782;29;20271;-81
2022/09/28 10:10:15;;;;;;;11.30;10.37;;;13.20;99.90;;;;;;4948571;29;20263;-79
2022/09/28 10:12:50;;;;;;;8.47;7.77;;;13.30;99.90;;;;;;4932400;29;20321;-80
2022/09/28 10:15:24;;;;;;;7.03;6.33;;;13.40;99.90;;;;;;4936050;29;20194;-80
2022/09/28 10:18:13;;;;;;;9.80;9.13;;;13.50;99.90;;;;;;4952662;29;20315;-79
2022/09/28 10:20:58;;;;;;;3.47;2.90;;;13.40;99.90;;;;;;4952287;29;20230;-80
2022/09/28 10:23:37;;;;;;;10.90;10.30;;;13.40;99.90;;;;;;4925030;29;20625;-79
2022/09/28 10:26:09;;;;;;;3.80;2.87;;;13.60;99.90;;;;;;4933875;29;20206;-80
2022/09/28 10:28:41;;;;;;;9.63;9.03;;;13.70;99.90;;;;;;4949408;29;20621;-79
2022/09/28 10:31:34;;;;;;;11.57;10.87;;;13.80;99.90;;;;;;4913739;29;20255;-79
2022/09/28 10:34:03;;;;;;;6.33;5.73;;;13.90;99.90;;;;;;4929046;29;20224;-80
2022/09/28 10:36:37;;;;;;;5.70;5.23;;;14.00;99.90;;;;;;4931777;29;20199;-79
2022/09/28 10:39:05;;;;;;;4.20;3.90;;;14.10;99.90;;;;;;4927964;29;20262;-80
2022/09/28 10:41:33;;;;;;;3.63;3.07;;;14.20;99.90;;;;;;4936616;29;20228;-80
2022/09/28 10:44:16;;;;;;;9.40;8.80;;;14.10;99.90;;;;;;4929975;29;20221;-80
2022/09/28 10:46:59;;;;;;;10.47;9.77;;;14.10;99.90;;;;;;4928609;29;20212;-80
2022/09/28 10:49:27;;;;;;;11.30;10.40;;;14.00;99.90;;;;;;4932702;29;20199;-80
2022/09/28 10:51:57;;;;;;;7.83;7.33;;;14.00;99.90;;;;;;4924525;29;20773;-80
2022/09/28 10:54:35;;;;;;;3.00;2.70;;;14.00;99.90;;;;;;4932618;29;20229;-79
2022/09/28 10:57:02;;;;;;;9.23;8.63;;;14.20;99.90;;;;;;4937545;29;20739;-79
2022/09/28 10:59:40;;;;;;;6.20;2.87;;;14.20;99.90;;;;;;4923130;29;20230;-79
2022/09/28 11:02:32;;;;;;;10.23;9.60;;;14.10;99.90;;;;;;4944463;29;20238;-80
2022/09/28 11:05:05;;;;;;;8.27;7.53;;;14.10;99.90;;;;;;4928290;29;20229;-80
2022/09/28 11:07:45;;;;;;;3.73;3.03;;;14.00;99.90;;;;;;4919769;29;20204;-80
2022/09/28 11:10:21;;;;;;;3.67;3.00;;;13.90;99.90;;;;;;4943909;28;20210;-79
2022/09/28 11:12:49;;;;;;;6.17;4.57;;;13.70;99.90;;;;;;4936199;29;20226;-80
2022/09/28 11:15:21;;;;;;;3.20;3.00;;;13.50;99.90;;;;;;4931298;29;20598;-80
2022/09/28 11:17:51;;;;;;;10.13;9.10;;;13.50;99.90;;;;;;4938693;29;20203;-79
2022/09/28 11:20:33;;;;;;;10.30;9.60;;;13.50;99.90;;;;;;4931295;29;20649;-79
2022/09/28 11:23:19;;;;;;;8.97;8.27;;;13.60;99.90;;;;;;4940229;29;20222;-79
2022/09/28 11:25:59;;;;;;;8.27;7.67;;;13.60;99.90;;;;;;4931079;29;20224;-80
2022/09/28 11:28:32;;;;;;;8.57;8.07;;;13.70;99.90;;;;;;4936190;29;20214;-80
2022/09/28 11:31:03;;;;;;;3.23;2.80;;;13.80;99.90;;;;;;4937879;29;20202;-82
2022/09/28 11:33:36;;;;;;;3.53;2.80;;;14.00;99.90;;;;;;4933451;29;20602;-80
2022/09/28 11:36:44;;;;;;;7.53;7.00;;;14.20;99.90;;;;;;4941185;28;20202;-80
2022/09/28 11:39:23;;;;;;;3.20;2.80;;;14.20;99.90;;;;;;4930742;29;20203;-79
2022/09/28 11:41:59;;;;;;;2.73;2.53;;;14.20;99.90;;;;;;4930827;28;20227;-80
2022/09/28 11:44:45;;;;;;;10.30;9.50;;;14.20;99.90;;;;;;4922755;29;20212;-80
2022/09/28 11:47:43;;;;;;;3.00;2.50;;;14.20;99.90;;;;;;4950685;28;20570;-80
2022/09/28 11:50:22;;;;;;;6.70;6.17;;;14.20;99.90;;;;;;4930281;29;20646;-80
2022/09/28 11:53:03;;;;;;;3.13;2.73;;;14.10;99.90;;;;;;4931431;29;20230;-80
2022/09/28 11:55:35;;;;;;;3.57;2.60;;;13.90;99.90;;;;;;4932579;29;20210;-80
2022/09/28 11:58:08;;;;;;;2.83;2.50;;;13.80;99.90;;;;;;4940501;29;20229;-79
2022/09/28 12:00:42;;;;;;;3.53;2.87;;;13.60;99.90;;;;;;4935826;29;20206;-80
2022/09/28 12:03:15;;;;;;;2.80;2.60;;;13.60;99.90;;;;;;4930758;29;20221;-79
2022/09/28 12:05:48;;;;;;;3.40;2.70;;;13.60;99.90;;;;;;4938721;29;20231;-79
2022/09/28 12:08:19;;;;;;;3.93;2.60;;;13.60;99.90;;;;;;4930355;29;20346;-80
2022/09/28 12:11:31;;;;;;;10.17;9.57;;;13.70;99.90;;;;;;4951202;29;20265;-80
2022/09/28 12:14:28;;;;;;;3.70;2.80;;;13.80;99.90;;;;;;4949483;29;20714;-80
2022/09/28 12:17:01;;;;;;;3.37;2.70;;;13.90;99.90;;;;;;4937453;29;20206;-80
2022/09/28 12:19:33;;;;;;;3.33;3.03;;;14.00;99.90;;;;;;4946629;29;20215;-79
2022/09/28 12:22:09;;;;;;;2.83;2.63;;;14.10;99.90;;;;;;4954244;29;20588;-80
2022/09/28 12:24:42;;;;;;;2.80;2.50;;;14.20;99.90;;;;;;4935866;29;20207;-81
2022/09/28 12:27:17;;;;;;;8.03;7.43;;;14.40;99.90;;;;;;4936783;29;20204;-80
2022/09/28 12:29:51;;;;;;;3.80;3.13;;;14.40;99.90;;;;;;4928200;29;20203;-79
2022/09/28 12:32:28;;;;;;;3.10;2.80;;;14.50;99.90;;;;;;4941073;29;20252;-80
2022/09/28 12:34:55;;;;;;;9.67;9.07;;;14.50;99.90;;;;;;4924625;29;20213;-80
2022/09/28 12:37:38;;;;;;;9.50;8.80;;;14.60;99.90;;;;;;4942022;29;20233;-80
2022/09/28 12:40:23;;;;;;;5.83;5.43;;;14.50;99.90;;;;;;4952677;29;20198;-80
2022/09/28 12:43:04;;;;;;;3.97;2.77;;;14.40;99.90;;;;;;4942954;29;20234;-79
2022/09/28 12:45:42;;;;;;;3.57;2.60;;;14.30;99.90;;;;;;4926679;29;20227;-80
2022/09/28 12:48:32;;;;;;;3.17;2.30;;;14.30;99.90;;;;;;4951712;29;20323;-81
2022/09/28 12:51:10;;;;;;;2.40;2.20;;;14.20;99.90;;;;;;4951019;28;20241;-80
2022/09/28 12:54:01;;;;;;;9.47;8.90;;;14.20;99.90;;;;;;4927302;29;20207;-80
2022/09/28 12:56:34;;;;;;;10.77;10.07;;;14.20;99.90;;;;;;4927164;29;20230;-80
2022/09/28 12:59:12;;;;;;;9.77;9.17;;;14.20;99.90;;;;;;4937685;28;20733;-79
2022/09/28 13:01:59;;;;;;;2.73;2.50;;;14.20;99.90;;;;;;4941489;29;20859;-79
2022/09/28 13:04:43;;;;;;;2.53;2.33;;;14.30;99.90;;;;;;4921439;29;20216;-79
2022/09/28 13:07:18;;;;;;;3.17;2.50;;;14.30;99.90;;;;;;4928290;29;20208;-79
2022/09/28 13:10:02;;;;;;;2.97;2.50;;;14.20;99.90;;;;;;4950638;29;20255;-79
2022/09/28 13:12:39;;;;;;;3.37;2.60;;;14.20;99.90;;;;;;4944253;29;20226;-79
2022/09/28 13:15:34;;;;;;;3.80;2.40;;;14.20;99.90;;;;;;4952953;29;20229;-79
2022/09/28 13:18:11;;;;;;;2.60;2.40;;;14.20;99.90;;;;;;4952325;29;20689;-79
2022/09/28 13:20:51;;;;;;;2.77;2.40;;;14.30;99.90;;;;;;4924744;29;20271;-79
2022/09/28 13:23:21;;;;;;;3.10;2.80;;;14.20;99.90;;;;;;4928875;29;20293;-78
2022/09/28 13:25:55;;;;;;;3.67;3.33;;;14.20;99.90;;;;;;4928779;29;20273;-78
2022/09/28 13:28:24;;;;;;;3.43;2.70;;;14.10;99.90;;;;;;4932488;29;20242;-78
2022/09/28 13:30:53;;;;;;;3.40;2.70;;;14.10;99.90;;;;;;4945559;29;20685;-78
2022/09/28 13:33:28;;;;;;;3.70;2.50;;;14.20;99.90;;;;;;4946787;29;20231;-78